Time;durP1;ratioP1;P1;durP2;ratioP2;P2;SDS_P1;SDS_P2;PMS_P1;PMS_P2;Temp;Humidity;BMP_temperature;BMP_pressure;BME280_temperature;BME280_humidity;BME280_pressure;Samples;Min_cycle;Max_cycle;Signal;HPM_P1;HPM_P2
2022/08/18 00:02:25;;;;;;;19.33;17.38;;;20.20;99.90;;;;;;4842973;29;20038;-84
2022/08/18 00:04:54;;;;;;;19.17;17.30;;;20.20;99.90;;;;;;4858881;29;20041;-85
2022/08/18 00:07:24;;;;;;;17.85;15.88;;;20.10;99.90;;;;;;4849543;29;20512;-84
2022/08/18 00:09:51;;;;;;;17.35;15.75;;;20.10;99.90;;;;;;4860091;29;20060;-84
2022/08/18 00:12:33;;;;;;;16.60;15.00;;;20.10;99.90;;;;;;4826856;29;20044;-84
2022/08/18 00:15:04;;;;;;;20.23;17.17;;;20.10;99.90;;;;;;4844664;29;20046;-84
2022/08/18 00:17:32;;;;;;;17.80;16.08;;;20.10;99.90;;;;;;4853496;29;20042;-85
2022/08/18 00:19:59;;;;;;;20.35;18.35;;;20.10;99.90;;;;;;4826784;29;20042;-83
2022/08/18 00:22:25;;;;;;;20.05;18.15;;;20.10;99.90;;;;;;4848115;29;20053;-84
2022/08/18 00:24:55;;;;;;;18.83;16.95;;;20.10;99.90;;;;;;4828250;29;20045;-85
2022/08/18 00:27:24;;;;;;;20.05;18.00;;;20.20;99.90;;;;;;4848431;29;20026;-83
2022/08/18 00:29:52;;;;;;;18.38;16.58;;;20.20;99.90;;;;;;4848232;29;20045;-84
2022/08/18 00:32:26;;;;;;;19.95;17.95;;;20.20;99.90;;;;;;4845381;29;20038;-84
2022/08/18 00:34:53;;;;;;;20.48;18.48;;;20.20;99.90;;;;;;4831128;29;20033;-82
2022/08/18 00:37:21;;;;;;;19.08;17.23;;;20.20;99.90;;;;;;4851825;29;20040;-85
2022/08/18 00:39:50;;;;;;;16.23;14.70;;;20.20;99.90;;;;;;4865195;29;20046;-84
2022/08/18 00:42:20;;;;;;;18.13;16.40;;;20.20;99.90;;;;;;4844396;29;20049;-85
2022/08/18 00:44:46;;;;;;;20.73;18.75;;;20.20;99.90;;;;;;4849424;29;20037;-84
2022/08/18 00:47:13;;;;;;;15.60;14.13;;;20.20;99.90;;;;;;4857132;29;20398;-84
2022/08/18 00:49:41;;;;;;;18.80;16.92;;;20.20;99.90;;;;;;4845820;29;20038;-85
2022/08/18 00:52:10;;;;;;;19.02;17.23;;;20.10;99.90;;;;;;4840163;29;20041;-83
2022/08/18 00:54:40;;;;;;;16.67;15.18;;;20.10;99.90;;;;;;4849695;29;20515;-84
2022/08/18 00:57:08;;;;;;;15.93;14.43;;;20.10;99.90;;;;;;4845903;29;20045;-84
2022/08/18 00:59:46;;;;;;;15.13;13.65;;;20.20;99.90;;;;;;4833816;29;20042;-83
2022/08/18 01:02:22;;;;;;;18.05;16.25;;;20.20;99.90;;;;;;4834120;29;20041;-84
2022/08/18 01:04:56;;;;;;;19.58;17.60;;;20.20;99.90;;;;;;4860760;29;20041;-83
2022/08/18 01:07:39;;;;;;;16.17;14.60;;;20.10;99.90;;;;;;4849677;29;20029;-84
2022/08/18 01:10:06;;;;;;;15.57;14.02;;;20.10;99.90;;;;;;4843008;29;20035;-83
2022/08/18 01:12:32;;;;;;;15.23;13.73;;;20.10;99.90;;;;;;4825894;29;20063;-81
2022/08/18 01:14:59;;;;;;;18.27;16.58;;;20.10;99.90;;;;;;4825937;29;20065;-84
2022/08/18 01:23:14;;;;;;;16.42;14.90;;;20.00;99.90;;;;;;4842133;29;20736;-84
2022/08/18 01:25:58;;;;;;;15.23;13.82;;;20.10;99.90;;;;;;4857951;29;20038;-83
2022/08/18 01:28:30;;;;;;;13.45;12.15;;;20.10;99.90;;;;;;4848697;29;20040;-84
2022/08/18 01:30:59;;;;;;;12.27;11.13;;;20.10;99.90;;;;;;4850396;29;20044;-84
2022/08/18 01:33:31;;;;;;;10.85;9.95;;;20.10;99.90;;;;;;4845878;29;20041;-84
2022/08/18 01:36:02;;;;;;;;;;;20.00;99.90;;;;;;4849475;29;20050;-83
2022/08/18 01:38:30;;;;;;;12.05;10.95;;;20.00;99.90;;;;;;4830332;29;19916;-84
2022/08/18 01:40:58;;;;;;;13.27;11.93;;;19.90;99.90;;;;;;4860978;29;20041;-84
2022/08/18 01:43:25;;;;;;;15.13;13.65;;;19.90;99.90;;;;;;4824261;29;20046;-84
2022/08/18 01:45:51;;;;;;;13.85;12.55;;;19.90;99.90;;;;;;4863363;29;20029;-83
2022/08/18 01:48:17;;;;;;;13.32;11.90;;;19.90;99.90;;;;;;4859310;29;20041;-84
2022/08/18 01:50:44;;;;;;;11.20;10.10;;;19.80;99.90;;;;;;4847885;29;21164;-83
2022/08/18 01:53:10;;;;;;;9.98;8.98;;;19.80;99.90;;;;;;4841348;29;20531;-84
2022/08/18 01:55:39;;;;;;;10.77;9.77;;;19.80;99.90;;;;;;4847142;29;20029;-82
2022/08/18 01:58:06;;;;;;;11.05;10.05;;;19.80;99.90;;;;;;4857744;29;20041;-84
2022/08/18 02:00:34;;;;;;;10.93;9.85;;;19.80;99.90;;;;;;4847950;29;20033;-84
2022/08/18 02:03:00;;;;;;;10.50;9.38;;;19.80;99.90;;;;;;4854615;29;20041;-83
2022/08/18 02:05:35;;;;;;;10.85;9.80;;;19.80;99.90;;;;;;4847567;29;20045;-83
2022/08/18 02:08:03;;;;;;;11.95;10.75;;;19.80;99.90;;;;;;4847222;29;20052;-84
2022/08/18 02:10:29;;;;;;;10.73;9.70;;;19.80;99.90;;;;;;4828653;29;20060;-84
2022/08/18 02:12:56;;;;;;;11.63;10.55;;;19.80;99.90;;;;;;4846095;29;20045;-82
2022/08/18 02:15:22;;;;;;;13.05;11.80;;;19.70;99.90;;;;;;4859060;29;20038;-84
2022/08/18 02:17:48;;;;;;;11.68;10.48;;;19.70;99.90;;;;;;4849913;29;20048;-84
2022/08/18 02:20:17;;;;;;;10.57;9.48;;;19.70;99.90;;;;;;4845195;29;20049;-84
2022/08/18 02:22:44;;;;;;;10.40;9.48;;;19.70;99.90;;;;;;4850854;29;20036;-82
2022/08/18 02:25:11;;;;;;;9.80;8.90;;;19.70;99.90;;;;;;4831761;29;20508;-84
2022/08/18 02:27:37;;;;;;;9.43;8.40;;;19.80;99.90;;;;;;4849073;29;20033;-84
2022/08/18 02:30:08;;;;;;;11.60;10.57;;;19.70;99.90;;;;;;4862596;29;20030;-83
2022/08/18 02:32:34;;;;;;;10.80;9.90;;;19.70;99.90;;;;;;4832978;29;20029;-83
2022/08/18 02:35:01;;;;;;;9.27;8.35;;;19.60;99.90;;;;;;4872840;23;20053;-83
2022/08/18 02:37:29;;;;;;;10.25;9.25;;;19.60;99.90;;;;;;4831740;29;20044;-83
2022/08/18 02:39:56;;;;;;;9.95;9.05;;;19.60;99.90;;;;;;4863558;29;20045;-83
2022/08/18 02:42:22;;;;;;;9.60;8.70;;;19.60;99.90;;;;;;4832511;29;20117;-82
2022/08/18 02:44:48;;;;;;;9.27;8.55;;;19.50;99.90;;;;;;4817813;29;20042;-83
2022/08/18 02:47:19;;;;;;;10.10;9.13;;;19.50;99.90;;;;;;4814113;29;20046;-83
2022/08/18 02:49:46;;;;;;;8.27;7.53;;;19.50;99.90;;;;;;4815782;29;20056;-82
2022/08/18 02:52:12;;;;;;;9.55;8.68;;;19.50;99.90;;;;;;4825903;29;20046;-83
2022/08/18 02:54:38;;;;;;;7.88;7.07;;;19.50;99.90;;;;;;4826279;29;20587;-83
2022/08/18 02:57:07;;;;;;;9.43;8.63;;;19.50;99.90;;;;;;4830665;29;20038;-82
2022/08/18 02:59:33;;;;;;;8.70;7.82;;;19.50;99.90;;;;;;4833520;29;20046;-82
2022/08/18 03:01:59;;;;;;;9.98;8.93;;;19.50;99.90;;;;;;4801130;29;20067;-82
2022/08/18 03:04:28;;;;;;;9.50;8.38;;;19.50;99.90;;;;;;4827427;29;20046;-82
2022/08/18 03:06:57;;;;;;;9.20;8.07;;;19.60;99.90;;;;;;4800110;29;20034;-82
2022/08/18 03:09:23;;;;;;;8.57;7.78;;;19.60;99.90;;;;;;4830089;29;20030;-82
2022/08/18 03:11:50;;;;;;;9.50;7.97;;;19.60;99.90;;;;;;4816154;29;20038;-83
2022/08/18 03:14:16;;;;;;;9.00;8.10;;;19.60;99.90;;;;;;4829945;29;20049;-82
2022/08/18 03:16:45;;;;;;;9.65;8.60;;;19.50;99.90;;;;;;4830586;29;20038;-82
2022/08/18 03:19:14;;;;;;;9.85;8.20;;;19.50;99.90;;;;;;4816019;29;20076;-83
2022/08/18 03:21:45;;;;;;;9.18;8.32;;;19.60;99.90;;;;;;4816772;29;20037;-83
2022/08/18 03:24:12;;;;;;;9.35;8.05;;;19.60;99.90;;;;;;4844972;29;20034;-83
2022/08/18 03:26:43;;;;;;;7.28;6.60;;;19.60;99.90;;;;;;4816284;29;20516;-82
2022/08/18 03:29:11;;;;;;;9.52;8.40;;;19.60;99.90;;;;;;4816243;29;20041;-83
2022/08/18 03:31:37;;;;;;;8.68;6.72;;;19.60;99.90;;;;;;4836174;29;20045;-83
2022/08/18 03:34:07;;;;;;;9.85;8.52;;;19.70;99.90;;;;;;4829648;29;20045;-83
2022/08/18 03:36:35;;;;;;;8.10;7.22;;;19.70;99.90;;;;;;4832940;29;20114;-82
2022/08/18 03:39:08;;;;;;;8.10;7.32;;;19.70;99.90;;;;;;4830814;29;20040;-83
2022/08/18 03:41:38;;;;;;;8.75;7.85;;;19.70;99.90;;;;;;4818081;29;20042;-82
2022/08/18 03:44:07;;;;;;;9.25;8.35;;;19.70;99.90;;;;;;4814263;29;20042;-83
2022/08/18 03:46:34;;;;;;;8.10;7.13;;;19.70;99.90;;;;;;4802201;29;20038;-83
2022/08/18 03:49:00;;;;;;;8.55;7.75;;;19.70;99.90;;;;;;4812939;29;20041;-82
2022/08/18 03:51:30;;;;;;;9.50;8.60;;;19.70;99.90;;;;;;4815401;29;20053;-83
2022/08/18 03:54:00;;;;;;;8.38;7.57;;;19.70;99.90;;;;;;4800475;29;20053;-83
2022/08/18 03:56:33;;;;;;;8.52;7.82;;;19.70;99.90;;;;;;4818555;29;20061;-83
2022/08/18 03:59:04;;;;;;;9.77;8.75;;;19.70;99.90;;;;;;4802822;29;20049;-83
2022/08/18 04:01:34;;;;;;;7.70;6.60;;;19.70;99.90;;;;;;4833144;29;20042;-84
2022/08/18 04:04:03;;;;;;;10.82;8.95;;;19.70;99.90;;;;;;4816930;29;20046;-83
2022/08/18 04:06:38;;;;;;;9.10;7.82;;;19.60;99.90;;;;;;4834318;29;20038;-83
2022/08/18 04:09:07;;;;;;;7.93;7.22;;;19.60;99.90;;;;;;4831580;29;20057;-83
2022/08/18 04:11:35;;;;;;;7.70;7.00;;;19.60;99.90;;;;;;4830084;29;20038;-83
2022/08/18 04:14:03;;;;;;;9.20;6.97;;;19.60;99.90;;;;;;4813644;29;20042;-82
2022/08/18 04:16:32;;;;;;;8.15;6.63;;;19.60;99.90;;;;;;4818539;29;20083;-84
2022/08/18 04:19:01;;;;;;;8.30;7.55;;;19.60;99.90;;;;;;4836811;29;20033;-83
2022/08/18 04:21:30;;;;;;;8.88;7.72;;;19.60;99.90;;;;;;4831590;29;20045;-82
2022/08/18 04:24:01;;;;;;;7.35;6.65;;;19.60;99.90;;;;;;4800843;29;20042;-83
2022/08/18 04:26:28;;;;;;;9.63;8.30;;;19.60;99.90;;;;;;4830622;29;20034;-83
2022/08/18 04:28:54;;;;;;;9.88;7.75;;;19.60;99.90;;;;;;4815877;29;20039;-81
2022/08/18 04:31:35;;;;;;;10.38;9.35;;;19.50;99.90;;;;;;4832059;29;20038;-82
2022/08/18 04:34:03;;;;;;;7.88;7.18;;;19.50;99.90;;;;;;4829814;29;20064;-82
2022/08/18 04:36:32;;;;;;;8.57;7.68;;;19.50;99.90;;;;;;4817863;29;20030;-82
2022/08/18 04:38:59;;;;;;;6.30;5.70;;;19.60;99.90;;;;;;4831394;29;20030;-83
2022/08/18 04:41:26;;;;;;;7.47;6.55;;;19.50;99.90;;;;;;4814664;29;20053;-83
2022/08/18 04:44:00;;;;;;;7.00;6.30;;;19.50;99.90;;;;;;4830973;29;20424;-82
2022/08/18 04:46:28;;;;;;;7.47;6.65;;;19.60;99.90;;;;;;4815747;29;20045;-85
2022/08/18 04:48:57;;;;;;;7.68;6.82;;;19.60;99.90;;;;;;4833002;29;20380;-85
2022/08/18 04:51:26;;;;;;;7.93;7.15;;;19.60;99.90;;;;;;4816099;29;20045;-84
2022/08/18 04:53:54;;;;;;;7.63;6.80;;;19.60;99.90;;;;;;4832899;29;20810;-83
2022/08/18 04:56:25;;;;;;;6.78;6.05;;;19.60;99.90;;;;;;4801774;29;20038;-83
2022/08/18 04:59:01;;;;;;;9.32;7.85;;;19.60;99.90;;;;;;4817070;29;20038;-82
2022/08/18 05:01:33;;;;;;;8.32;6.60;;;19.60;99.90;;;;;;4829507;29;20053;-85
2022/08/18 05:04:00;;;;;;;7.35;6.22;;;19.60;99.90;;;;;;4813143;29;20034;-84
2022/08/18 05:06:27;;;;;;;9.90;8.15;;;19.60;99.90;;;;;;4830609;29;20056;-84
2022/08/18 05:08:56;;;;;;;7.60;6.82;;;19.60;99.90;;;;;;4828809;29;20520;-84
2022/08/18 05:11:27;;;;;;;9.15;7.53;;;19.60;99.90;;;;;;4831310;29;20038;-85
2022/08/18 05:13:56;;;;;;;8.80;7.45;;;19.60;99.90;;;;;;4815524;29;20042;-84
2022/08/18 05:16:24;;;;;;;9.35;8.18;;;19.60;99.90;;;;;;4833747;29;20456;-84
2022/08/18 05:18:52;;;;;;;8.55;7.28;;;19.70;99.90;;;;;;4831601;29;20088;-84
2022/08/18 05:21:20;;;;;;;9.65;8.75;;;19.70;99.90;;;;;;4845652;29;20045;-84
2022/08/18 05:23:48;;;;;;;7.85;6.95;;;19.70;99.90;;;;;;4814944;29;20041;-85
2022/08/18 05:26:17;;;;;;;13.95;12.30;;;19.70;99.90;;;;;;4816075;29;20386;-85
2022/08/18 05:28:44;;;;;;;10.05;9.07;;;19.60;99.90;;;;;;4828897;29;20316;-84
2022/08/18 05:31:20;;;;;;;9.25;8.27;;;19.60;99.90;;;;;;4829063;29;20446;-85
2022/08/18 05:33:47;;;;;;;8.57;7.78;;;19.60;99.90;;;;;;4824419;29;20038;-85
2022/08/18 05:36:23;;;;;;;9.63;8.68;;;19.70;99.90;;;;;;4826778;29;20037;-85
2022/08/18 05:38:58;;;;;;;11.27;9.07;;;19.70;99.90;;;;;;4810157;29;20054;-85
2022/08/18 05:41:33;;;;;;;12.27;9.20;;;19.70;99.90;;;;;;4826975;29;20041;-84
2022/08/18 05:44:01;;;;;;;14.60;12.77;;;19.70;99.90;;;;;;4824855;29;20030;-85
2022/08/18 05:46:41;;;;;;;13.13;10.88;;;19.70;99.90;;;;;;4797549;29;20042;-85
2022/08/18 05:49:07;;;;;;;9.95;9.05;;;19.70;99.90;;;;;;4827600;29;20039;-85
2022/08/18 05:51:41;;;;;;;11.52;9.07;;;19.70;99.90;;;;;;4841533;29;20042;-84
2022/08/18 05:56:58;;;;;;;12.40;10.75;;;19.70;99.90;;;;;;4827355;29;20042;-84
2022/08/18 05:59:31;;;;;;;9.57;8.48;;;19.70;99.90;;;;;;4827331;29;20516;-83
2022/08/18 06:02:32;;;;;;;9.52;8.13;;;19.80;99.90;;;;;;4826894;29;20041;-82
2022/08/18 06:05:10;;;;;;;10.00;8.50;;;19.90;99.90;;;;;;4812858;29;20038;-84
2022/08/18 06:07:43;;;;;;;13.18;9.90;;;20.00;99.90;;;;;;4843778;29;20053;-83
2022/08/18 06:10:10;;;;;;;8.15;6.93;;;20.20;99.90;;;;;;4823679;29;20036;-82
2022/08/18 06:12:39;;;;;;;9.75;7.68;;;20.30;99.90;;;;;;4795362;29;20316;-82
2022/08/18 06:15:09;;;;;;;8.13;6.45;;;20.40;99.90;;;;;;4801867;29;20045;-83
2022/08/18 06:18:00;;;;;;;8.95;6.93;;;20.50;99.90;;;;;;4819467;29;20041;-83
2022/08/18 06:20:36;;;;;;;8.95;7.90;;;20.50;99.90;;;;;;4800811;29;20116;-83
2022/08/18 06:23:27;;;;;;;9.00;7.53;;;20.60;99.90;;;;;;4845042;29;20393;-82
2022/08/18 06:26:21;;;;;;;7.37;6.17;;;20.60;99.90;;;;;;4836194;29;20381;-82
2022/08/18 06:29:05;;;;;;;10.32;8.27;;;20.70;99.90;;;;;;4820122;29;20288;-82
2022/08/18 06:31:59;;;;;;;7.63;6.57;;;20.80;99.90;;;;;;4848575;29;20037;-81
2022/08/18 06:34:47;;;;;;;5.47;4.97;;;20.80;99.90;;;;;;4818940;29;20038;-82
2022/08/18 06:37:17;;;;;;;6.20;5.60;;;20.90;99.90;;;;;;4831203;29;20038;-83
2022/08/18 06:39:48;;;;;;;6.32;5.60;;;21.00;99.90;;;;;;4819116;29;20034;-82
2022/08/18 06:42:20;;;;;;;9.75;6.15;;;21.10;99.90;;;;;;4812889;29;20061;-82
2022/08/18 06:45:04;;;;;;;9.65;7.10;;;21.10;99.90;;;;;;4829940;29;20038;-82
2022/08/18 06:47:53;;;;;;;8.10;6.22;;;21.20;99.90;;;;;;4833416;29;20042;-82
2022/08/18 06:50:25;;;;;;;10.27;6.55;;;21.20;99.90;;;;;;4818872;29;20050;-82
2022/08/18 06:52:53;;;;;;;;;;;21.40;99.90;;;;;;4846171;29;20050;-82
2022/08/18 06:55:32;;;;;;;7.20;5.20;;;21.60;99.90;;;;;;4821646;29;19912;-81
2022/08/18 06:58:02;;;;;;;8.82;5.47;;;21.90;99.90;;;;;;4820065;29;20073;-82
2022/08/18 07:00:31;;;;;;;7.97;5.80;;;21.90;99.90;;;;;;4818820;29;20037;-82
2022/08/18 07:03:06;;;;;;;5.97;5.40;;;22.00;99.90;;;;;;4796850;29;20060;-83
2022/08/18 07:05:35;;;;;;;6.50;5.47;;;22.00;99.90;;;;;;4832409;29;20041;-82
2022/08/18 07:08:30;;;;;;;6.35;4.13;;;22.10;99.90;;;;;;4828421;29;20042;-82
2022/08/18 07:11:19;;;;;;;6.43;5.80;;;22.00;99.90;;;;;;4829290;29;20037;-83
2022/08/18 07:13:49;;;;;;;8.68;5.38;;;22.00;99.90;;;;;;4830010;29;20031;-83
2022/08/18 07:16:27;;;;;;;5.60;4.60;;;21.90;99.90;;;;;;4800889;29;20046;-83
2022/08/18 07:19:05;;;;;;;6.72;6.13;;;21.80;99.90;;;;;;4828592;29;20543;-84
2022/08/18 07:21:33;;;;;;;6.97;5.80;;;21.70;99.90;;;;;;4828866;29;20660;-88
2022/08/18 07:24:27;;;;;;;5.13;4.40;;;21.90;99.90;;;;;;4813909;29;20058;-85
2022/08/18 07:27:04;;;;;;;7.53;5.18;;;22.20;99.90;;;;;;4813712;29;20045;-83
2022/08/18 07:29:57;;;;;;;4.93;4.40;;;22.40;99.90;;;;;;4825622;29;20037;-82
2022/08/18 07:32:30;;;;;;;6.25;3.90;;;22.60;99.90;;;;;;4810327;29;20033;-84
2022/08/18 07:34:59;;;;;;;5.95;4.15;;;22.90;99.90;;;;;;4826930;29;20053;-84
2022/08/18 07:37:30;;;;;;;5.60;4.18;;;23.10;99.90;;;;;;4802176;29;20508;-83
2022/08/18 07:40:18;;;;;;;5.65;4.15;;;23.30;99.90;;;;;;4835063;29;20030;-84
2022/08/18 07:42:49;;;;;;;4.10;3.70;;;23.50;99.90;;;;;;4864010;29;20054;-84
2022/08/18 07:45:36;;;;;;;8.23;5.32;;;23.70;99.90;;;;;;4807228;29;20050;-82
2022/08/18 07:48:06;;;;;;;4.18;3.78;;;23.80;99.90;;;;;;4818024;29;20037;-85
2022/08/18 07:51:00;;;;;;;5.15;2.92;;;24.00;99.90;;;;;;4829669;29;20037;-84
2022/08/18 07:53:35;;;;;;;3.42;1.98;;;24.20;99.90;;;;;;4834417;29;20030;-84
2022/08/18 07:56:14;;;;;;;4.85;2.92;;;24.40;99.90;;;;;;4831542;29;20053;-84
2022/08/18 07:58:53;;;;;;;4.10;2.33;;;24.50;99.90;;;;;;4818576;29;20042;-83
2022/08/18 08:01:40;;;;;;;3.85;2.13;;;24.50;99.90;;;;;;4831357;29;20046;-83
2022/08/18 08:04:33;;;;;;;3.60;1.80;;;24.40;99.90;;;;;;4836786;29;20053;-84
2022/08/18 08:07:05;;;;;;;4.22;2.78;;;24.00;99.90;;;;;;4833767;29;20050;-84
2022/08/18 08:09:51;;;;;;;4.47;2.67;;;23.80;99.90;;;;;;4817907;29;20129;-83
2022/08/18 08:12:40;;;;;;;4.65;1.88;;;23.80;99.90;;;;;;4830638;29;20042;-85
2022/08/18 08:15:16;;;;;;;3.80;1.92;;;24.00;99.90;;;;;;4822293;29;20689;-84
2022/08/18 08:17:52;;;;;;;3.85;2.72;;;24.20;99.90;;;;;;4838450;29;20472;-84
2022/08/18 08:20:31;;;;;;;6.60;3.90;;;24.50;99.90;;;;;;4835517;29;20042;-85
2022/08/18 08:23:08;;;;;;;3.10;2.05;;;24.70;99.90;;;;;;4831274;29;20062;-86
2022/08/18 08:26:20;;;;;;;4.32;1.95;;;24.70;99.90;;;;;;4834605;29;20045;-84
2022/08/18 08:29:12;;;;;;;4.57;1.73;;;24.50;99.90;;;;;;4849582;29;20034;-85
2022/08/18 08:31:53;;;;;;;;;;;24.30;99.90;;;;;;4804374;29;20038;-85
2022/08/18 08:34:44;;;;;;;3.13;2.00;;;24.60;99.90;;;;;;4875923;23;19931;-81
2022/08/18 08:37:22;;;;;;;2.78;1.90;;;24.80;99.90;;;;;;4839752;29;20420;-81
2022/08/18 08:40:02;;;;;;;2.25;1.58;;;25.00;99.90;;;;;;4836898;29;20053;-82
2022/08/18 08:44:01;;;;;;;3.25;1.90;;;25.00;99.90;;;;;;4846370;29;20046;-81
2022/08/18 08:47:50;;;;;;;3.42;1.77;;;24.90;99.90;;;;;;4855864;29;20052;-81
2022/08/18 08:51:14;;;;;;;3.97;2.10;;;25.10;99.90;;;;;;4849503;29;20050;-82
2022/08/18 08:54:35;;;;;;;6.75;2.15;;;25.40;99.90;;;;;;4827002;29;20050;-82
2022/08/18 08:57:07;;;;;;;3.47;1.45;;;25.70;99.90;;;;;;4815194;29;20047;-82
2022/08/18 08:59:45;;;;;;;3.45;2.00;;;25.70;99.90;;;;;;4836303;29;20049;-81
2022/08/18 09:02:33;;;;;;;2.38;1.40;;;25.60;99.90;;;;;;4834320;29;20038;-81
2022/08/18 09:05:18;;;;;;;2.88;1.70;;;25.50;99.90;;;;;;4814609;29;20042;-81
2022/08/18 09:08:03;;;;;;;2.20;1.25;;;25.70;99.90;;;;;;4845358;29;20522;-81
2022/08/18 09:11:07;;;;;;;2.33;1.45;;;26.10;99.90;;;;;;4839860;29;20045;-82
2022/08/18 09:13:58;;;;;;;2.67;1.63;;;26.30;99.90;;;;;;4826342;29;20045;-81
2022/08/18 09:16:53;;;;;;;1.65;1.10;;;26.60;99.90;;;;;;4847919;29;20057;-81
2022/08/18 09:20:00;;;;;;;;;;;;;;;;;;;;;
2022/08/18 09:23:00;;;;;;;2.92;1.40;;;26.40;99.90;;;;;;4826968;29;20034;-81
2022/08/18 09:25:42;;;;;;;2.08;1.38;;;26.10;99.90;;;;;;4824481;29;20043;-81
2022/08/18 09:29:09;;;;;;;1.95;1.40;;;26.10;99.90;;;;;;4830092;29;20065;-82
2022/08/18 09:32:20;;;;;;;2.20;1.35;;;26.30;99.90;;;;;;4811982;29;20045;-80
2022/08/18 09:36:15;;;;;;;3.28;1.27;;;26.20;99.70;;;;;;4799134;29;20493;-82
2022/08/18 09:41:59;;;;;;;2.08;1.40;;;26.30;99.30;;;;;;4835530;29;20046;-81
2022/08/18 09:44:44;;;;;;;4.50;3.15;;;26.10;99.30;;;;;;4839833;29;20049;-82
2022/08/18 09:47:31;;;;;;;3.75;2.40;;;26.00;99.40;;;;;;4844629;29;21361;-82
2022/08/18 09:50:29;;;;;;;3.45;2.53;;;25.90;99.70;;;;;;4822054;29;20066;-82
2022/08/18 09:52:58;;;;;;;2.72;2.00;;;25.70;99.50;;;;;;4839425;29;20042;-81
2022/08/18 09:55:24;;;;;;;3.05;1.58;;;25.70;99.80;;;;;;4837662;29;20031;-81
2022/08/18 09:58:13;;;;;;;2.38;1.90;;;25.70;99.80;;;;;;4838461;29;20042;-81
2022/08/18 10:00:40;;;;;;;3.03;1.45;;;25.70;99.50;;;;;;4853356;29;20049;-81
2022/08/18 10:03:22;;;;;;;2.22;1.58;;;25.60;99.60;;;;;;4863599;29;20052;-82
2022/08/18 10:06:11;;;;;;;2.28;1.60;;;25.60;99.40;;;;;;4844776;29;20111;-81
2022/08/18 10:09:07;;;;;;;2.22;1.35;;;25.70;99.30;;;;;;4839277;29;20038;-81
2022/08/18 10:11:47;;;;;;;1.70;1.20;;;25.90;99.60;;;;;;4836057;29;20034;-82
2022/08/18 10:14:38;;;;;;;2.50;1.30;;;26.50;99.50;;;;;;4843991;29;20034;-81
2022/08/18 10:17:19;;;;;;;2.42;1.23;;;27.00;98.80;;;;;;4856543;29;20045;-81
2022/08/18 10:19:58;;;;;;;5.85;1.63;;;27.20;98.30;;;;;;4822471;29;20042;-82
2022/08/18 10:22:44;;;;;;;1.58;0.95;;;27.20;98.10;;;;;;4821021;29;20061;-82
2022/08/18 10:25:13;;;;;;;1.80;1.40;;;27.20;98.10;;;;;;4830502;29;20066;-81
2022/08/18 10:27:45;;;;;;;3.63;2.03;;;27.10;98.20;;;;;;4822007;29;20035;-80
2022/08/18 10:30:46;;;;;;;2.95;2.00;;;26.80;97.60;;;;;;4811605;29;20038;-80
2022/08/18 10:33:51;;;;;;;3.03;2.00;;;26.50;98.00;;;;;;4836061;29;20054;-81
2022/08/18 10:37:17;;;;;;;;;;;;;;;;;;;;;
2022/08/18 10:40:32;;;;;;;1.83;1.60;;;26.00;98.30;;;;;;4807795;29;20053;-82
2022/08/18 10:43:52;;;;;;;1.92;1.52;;;25.80;98.70;;;;;;4820433;29;20064;-82
2022/08/18 10:46:24;;;;;;;2.80;1.80;;;25.70;98.60;;;;;;4842939;29;20511;-81
2022/08/18 10:49:24;;;;;;;1.90;1.17;;;25.80;98.70;;;;;;4840622;29;20038;-81
2022/08/18 10:52:09;;;;;;;3.78;1.77;;;26.00;98.40;;;;;;4823520;29;20506;-81
2022/08/18 10:55:16;;;;;;;3.00;1.88;;;26.10;98.30;;;;;;4822350;29;20039;-80
2022/08/18 10:58:14;;;;;;;2.88;1.90;;;26.30;98.20;;;;;;4827859;29;20267;-83
2022/08/18 11:01:05;;;;;;;4.85;3.08;;;26.30;97.60;;;;;;4837914;29;20026;-82
2022/08/18 11:03:57;;;;;;;2.77;1.70;;;26.30;97.60;;;;;;4802593;29;20035;-82
2022/08/18 11:06:24;;;;;;;2.80;1.88;;;26.20;97.90;;;;;;4832656;29;20049;-82
2022/08/18 11:08:59;;;;;;;3.53;1.25;;;26.20;98.00;;;;;;4849703;29;20489;-82
2022/08/18 11:11:34;;;;;;;3.60;2.00;;;26.30;98.20;;;;;;4834924;29;20042;-82
2022/08/18 11:14:19;;;;;;;4.07;2.08;;;26.30;98.20;;;;;;4849907;29;20409;-82
2022/08/18 11:16:55;;;;;;;2.78;1.88;;;26.30;98.30;;;;;;4832923;29;20049;-83
2022/08/18 11:19:41;;;;;;;3.80;2.55;;;26.10;98.40;;;;;;4846699;29;20042;-84
2022/08/18 11:22:29;;;;;;;3.28;1.83;;;26.10;98.50;;;;;;4831917;29;20057;-82
2022/08/18 11:24:55;;;;;;;2.58;1.48;;;26.00;98.70;;;;;;4832574;29;20046;-81
2022/08/18 11:27:34;;;;;;;2.85;1.70;;;26.00;98.70;;;;;;4832972;29;20034;-84
2022/08/18 11:30:04;;;;;;;2.50;1.58;;;25.90;98.60;;;;;;4839588;29;20049;-83
2022/08/18 11:32:37;;;;;;;2.45;1.33;;;25.90;98.70;;;;;;4856337;29;20048;-83
2022/08/18 11:35:17;;;;;;;2.10;1.48;;;25.90;98.60;;;;;;4826969;29;20042;-83
2022/08/18 11:37:47;;;;;;;3.17;1.50;;;26.00;98.50;;;;;;4848451;29;20053;-83
2022/08/18 11:40:34;;;;;;;2.75;1.75;;;26.00;98.40;;;;;;4849683;29;20038;-83
2022/08/18 11:43:18;;;;;;;2.75;1.50;;;26.00;98.30;;;;;;4821740;29;20049;-84
2022/08/18 11:45:47;;;;;;;1.85;1.35;;;26.20;98.30;;;;;;4845389;29;20054;-84
2022/08/18 11:48:37;;;;;;;2.83;1.42;;;26.20;98.20;;;;;;4839253;29;20039;-82
2022/08/18 11:51:27;;;;;;;3.38;1.60;;;26.40;98.10;;;;;;4847581;29;20054;-83
2022/08/18 11:54:33;;;;;;;2.75;1.65;;;26.40;97.80;;;;;;4845282;29;20073;-82
2022/08/18 11:57:39;;;;;;;1.67;1.30;;;26.30;97.60;;;;;;4832775;29;20054;-83
2022/08/18 12:00:49;;;;;;;1.77;1.45;;;26.30;97.70;;;;;;4842734;29;20404;-83
2022/08/18 12:26:19;;;;;;;3.42;2.10;;;26.30;97.10;;;;;;4872483;23;20073;-84
2022/08/18 12:34:34;;;;;;;1.83;1.52;;;26.50;96.90;;;;;;4871551;29;20050;-83
2022/08/18 12:38:02;;;;;;;2.63;1.50;;;26.70;96.60;;;;;;4853881;29;20056;-83
2022/08/18 12:40:53;;;;;;;2.72;1.40;;;26.80;96.30;;;;;;4833233;29;20038;-83
2022/08/18 12:43:38;;;;;;;2.05;0.98;;;26.90;95.80;;;;;;4856995;29;20046;-83
2022/08/18 12:46:23;;;;;;;2.17;1.42;;;26.90;95.80;;;;;;4857579;29;20049;-83
2022/08/18 13:10:28;;;;;;;1.92;1.30;;;25.90;96.60;;;;;;4804992;29;20161;-82
2022/08/18 13:20:40;;;;;;;;;;;;;;;;;;;;;
2022/08/18 13:28:28;;;;;;;2.60;1.25;;;25.70;96.80;;;;;;4865909;29;20528;-84
2022/08/18 13:31:19;;;;;;;1.40;1.05;;;25.70;96.70;;;;;;4751352;30;20058;-82
2022/08/18 13:33:48;;;;;;;1.90;1.10;;;25.70;96.60;;;;;;4819246;29;20041;-81
2022/08/18 13:36:47;;;;;;;2.15;1.17;;;25.70;96.50;;;;;;4875447;29;20042;-83
2022/08/18 13:44:12;;;;;;;1.48;1.02;;;25.70;96.30;;;;;;4802062;29;20054;-82
2022/08/18 13:46:54;;;;;;;2.38;1.48;;;25.60;96.60;;;;;;4827278;29;20108;-83
2022/08/18 13:49:24;;;;;;;2.95;1.88;;;25.60;96.60;;;;;;4836322;29;20026;-82
2022/08/18 13:52:29;;;;;;;2.53;1.25;;;25.60;96.60;;;;;;4839941;29;20411;-85
2022/08/18 13:55:08;;;;;;;2.10;1.20;;;25.70;96.70;;;;;;4835087;29;20373;-81
2022/08/18 13:57:35;;;;;;;2.08;1.50;;;25.80;96.80;;;;;;4862213;29;20061;-80
2022/08/18 14:00:03;;;;;;;4.10;1.30;;;25.80;96.90;;;;;;4843938;29;20037;-80
2022/08/18 14:02:30;;;;;;;1.75;1.40;;;25.80;96.90;;;;;;4860704;29;20049;-81
2022/08/18 14:04:59;;;;;;;2.85;1.10;;;25.80;96.90;;;;;;4843251;29;20432;-82
2022/08/18 14:07:26;;;;;;;2.28;1.13;;;25.90;96.90;;;;;;4842117;29;20057;-80
2022/08/18 14:09:52;;;;;;;2.55;1.42;;;25.90;96.90;;;;;;4862025;29;20064;-81
2022/08/18 14:12:21;;;;;;;2.75;1.48;;;26.00;96.70;;;;;;4849241;29;20106;-81
2022/08/18 14:14:48;;;;;;;4.55;1.45;;;26.20;96.60;;;;;;4830733;29;20123;-82
2022/08/18 14:17:14;;;;;;;2.83;1.77;;;26.30;96.30;;;;;;4864956;29;20041;-82
2022/08/18 14:28:01;;;;;;;3.33;2.70;;;29.30;93.70;;;;;;4850849;29;20381;-81
2022/08/18 14:30:27;;;;;;;3.75;2.70;;;30.30;92.50;;;;;;4857252;29;20540;-81
2022/08/18 14:32:54;;;;;;;4.20;2.20;;;30.90;91.30;;;;;;4856017;29;20037;-84
2022/08/18 14:35:21;;;;;;;2.75;1.90;;;31.30;90.50;;;;;;4881377;23;20050;-86
2022/08/18 14:37:48;;;;;;;3.38;2.20;;;32.30;87.50;;;;;;4861524;29;20051;-85
2022/08/18 14:40:15;;;;;;;8.02;7.22;;;33.50;84.30;;;;;;4860240;29;20041;-86
2022/08/18 14:42:41;;;;;;;4.43;2.25;;;34.30;81.20;;;;;;4873937;29;20040;-86
2022/08/18 14:45:09;;;;;;;3.05;2.55;;;35.00;76.10;;;;;;4844440;29;20037;-86
2022/08/18 14:47:35;;;;;;;3.95;1.88;;;35.20;74.40;;;;;;4852189;29;20052;-86
2022/08/18 14:50:02;;;;;;;2.92;1.50;;;34.40;74.70;;;;;;4848681;29;20033;-86
2022/08/18 14:52:28;;;;;;;2.60;1.80;;;33.40;74.80;;;;;;4842675;29;20508;-86
2022/08/18 14:54:54;;;;;;;2.65;1.45;;;32.30;76.90;;;;;;4861162;29;20441;-86
2022/08/18 14:57:21;;;;;;;2.45;1.30;;;31.60;77.70;;;;;;4848528;29;20515;-86
2022/08/18 14:59:49;;;;;;;2.35;1.60;;;30.90;78.90;;;;;;4846367;29;20053;-86
2022/08/18 15:02:16;;;;;;;2.28;1.20;;;30.40;80.80;;;;;;4858539;29;20088;-86
2022/08/18 15:04:43;;;;;;;2.17;1.20;;;30.10;81.90;;;;;;4838141;29;20045;-86
2022/08/18 15:07:10;;;;;;;2.00;1.25;;;30.00;82.70;;;;;;4851990;29;20033;-87